Time;durP1;ratioP1;P1;durP2;ratioP2;P2;SDS_P1;SDS_P2;PMS_P1;PMS_P2;Temp;Humidity;BMP_temperature;BMP_pressure;BME280_temperature;BME280_humidity;BME280_pressure;Samples;Min_cycle;Max_cycle;Signal;HPM_P1;HPM_P2
2021/08/04 00:02:07;;;;;;;13.50;9.07;;;;;;;;;;5021154;28;20013;-86
2021/08/04 00:04:32;;;;;;;13.75;8.63;;;;;;;;;;5014039;28;20354;-86
2021/08/04 00:06:57;;;;;;;11.63;8.20;;;;;;;;;;5019800;28;20041;-86
2021/08/04 00:09:22;;;;;;;12.93;8.73;;;;;;;;;;5010624;28;20040;-86
2021/08/04 00:11:47;;;;;;;11.60;8.35;;;;;;;;;;5015175;28;20032;-86
2021/08/04 00:14:13;;;;;;;13.90;9.45;;;;;;;;;;5011701;28;20518;-86
2021/08/04 00:16:38;;;;;;;11.90;8.70;;;;;;;;;;5010914;28;20022;-87
2021/08/04 00:19:03;;;;;;;15.18;8.88;;;;;;;;;;5013438;28;20025;-86
2021/08/04 00:21:29;;;;;;;15.52;9.13;;;;;;;;;;5019639;28;20033;-86
2021/08/04 00:23:54;;;;;;;13.40;8.70;;;;;;;;;;5016365;28;20113;-87
2021/08/04 00:26:19;;;;;;;15.70;9.82;;;;;;;;;;5018495;28;20468;-86
2021/08/04 00:28:44;;;;;;;16.42;10.00;;;;;;;;;;5014253;28;20033;-87
2021/08/04 00:31:10;;;;;;;14.45;9.10;;;;;;;;;;5015050;28;20021;-86
2021/08/04 00:33:35;;;;;;;19.13;9.60;;;;;;;;;;5022495;28;20022;-87
2021/08/04 00:36:00;;;;;;;18.77;9.52;;;;;;;;;;5015795;28;20133;-86
2021/08/04 00:38:25;;;;;;;14.68;9.90;;;;;;;;;;5042933;28;20101;-86
2021/08/04 00:40:50;;;;;;;16.95;10.43;;;;;;;;;;5013048;28;20026;-86
2021/08/04 00:43:16;;;;;;;17.35;10.68;;;;;;;;;;5026805;28;20018;-86
2021/08/04 00:45:41;;;;;;;18.33;10.38;;;;;;;;;;5038325;28;20037;-86
2021/08/04 00:48:06;;;;;;;26.08;11.02;;;;;;;;;;5026679;28;20017;-86
2021/08/04 00:50:32;;;;;;;14.43;9.73;;;;;;;;;;5013866;28;20473;-86
2021/08/04 00:52:57;;;;;;;14.80;10.05;;;;;;;;;;5013711;28;20051;-87
2021/08/04 00:55:26;;;;;;;13.82;9.40;;;;;;;;;;5021348;28;20026;-87
2021/08/04 00:57:51;;;;;;;14.18;9.38;;;;;;;;;;5026141;28;20064;-86
2021/08/04 01:00:17;;;;;;;16.40;8.90;;;;;;;;;;5024520;28;20017;-86
2021/08/04 01:02:57;;;;;;;17.55;10.10;;;;;;;;;;5022806;28;20018;-86
2021/08/04 01:05:24;;;;;;;15.45;9.68;;;;;;;;;;5021163;28;20477;-86
2021/08/04 01:08:01;;;;;;;13.75;9.60;;;;;;;;;;5025443;28;20053;-86
2021/08/04 01:10:29;;;;;;;17.13;11.52;;;;;;;;;;5016554;28;20045;-86
2021/08/04 01:13:03;;;;;;;23.50;10.60;;;;;;;;;;5021358;28;20057;-86
2021/08/04 01:15:31;;;;;;;15.38;9.85;;;;;;;;;;5043999;28;20044;-86
2021/08/04 01:17:58;;;;;;;12.68;9.30;;;;;;;;;;5020531;28;20030;-86
2021/08/04 01:20:25;;;;;;;14.98;10.10;;;;;;;;;;5015063;28;20084;-86
2021/08/04 01:23:09;;;;;;;15.02;10.15;;;;;;;;;;5020617;28;20033;-86
2021/08/04 01:25:39;;;;;;;21.90;10.13;;;;;;;;;;5046453;28;20037;-87
2021/08/04 01:28:21;;;;;;;14.93;9.93;;;;;;;;;;5013402;28;20373;-86
2021/08/04 01:30:48;;;;;;;16.58;10.27;;;;;;;;;;5021217;28;20363;-86
2021/08/04 01:33:14;;;;;;;19.15;11.40;;;;;;;;;;5013161;28;20105;-86
2021/08/04 01:35:40;;;;;;;18.20;12.02;;;;;;;;;;5021172;28;20024;-86
2021/08/04 01:38:05;;;;;;;18.88;12.70;;;;;;;;;;5019941;28;20017;-86
2021/08/04 01:40:31;;;;;;;17.15;11.82;;;;;;;;;;5013056;28;20685;-86
2021/08/04 01:42:57;;;;;;;19.35;11.70;;;;;;;;;;5015149;28;20033;-86
2021/08/04 01:45:22;;;;;;;22.08;13.50;;;;;;;;;;5013429;28;20034;-87
2021/08/04 01:47:48;;;;;;;23.20;12.80;;;;;;;;;;5013880;28;20025;-86
2021/08/04 01:50:13;;;;;;;20.15;12.23;;;;;;;;;;5015790;28;20376;-86
2021/08/04 01:52:39;;;;;;;23.70;12.63;;;;;;;;;;5045480;28;20434;-87
2021/08/04 01:55:04;;;;;;;21.23;12.93;;;;;;;;;;5040483;28;20025;-85
2021/08/04 01:57:30;;;;;;;20.60;13.02;;;;;;;;;;5019299;28;20330;-86
2021/08/04 01:59:55;;;;;;;20.98;13.68;;;;;;;;;;5019984;28;20426;-86
2021/08/04 02:02:21;;;;;;;20.83;12.70;;;;;;;;;;5012456;28;20543;-86
2021/08/04 02:04:47;;;;;;;19.75;12.77;;;;;;;;;;5021490;28;20064;-86
2021/08/04 02:07:15;;;;;;;25.45;13.40;;;;;;;;;;5015946;28;20061;-86
2021/08/04 02:09:48;;;;;;;22.27;13.52;;;;;;;;;;5012646;28;20029;-86
2021/08/04 02:12:13;;;;;;;23.52;13.27;;;;;;;;;;5014474;28;20480;-86
2021/08/04 02:14:41;;;;;;;18.60;12.25;;;;;;;;;;5020044;28;20057;-86
2021/08/04 02:17:09;;;;;;;20.85;13.10;;;;;;;;;;5012645;28;20018;-86
2021/08/04 02:19:42;;;;;;;21.27;13.25;;;;;;;;;;5040981;28;20046;-87
2021/08/04 02:22:28;;;;;;;22.95;13.23;;;;;;;;;;5011977;28;20040;-86
2021/08/04 02:24:55;;;;;;;20.40;12.85;;;;;;;;;;5042630;28;20057;-86
2021/08/04 02:27:20;;;;;;;23.58;13.18;;;;;;;;;;5021071;28;20064;-86
2021/08/04 02:29:47;;;;;;;18.17;11.82;;;;;;;;;;5011984;28;20057;-86
2021/08/04 02:32:12;;;;;;;19.05;12.07;;;;;;;;;;5013285;28;20104;-86
2021/08/04 02:34:37;;;;;;;25.48;12.55;;;;;;;;;;5018513;28;20105;-86
2021/08/04 02:37:03;;;;;;;20.48;12.35;;;;;;;;;;5011540;28;20053;-86
2021/08/04 02:39:28;;;;;;;23.52;13.02;;;;;;;;;;5013432;28;20117;-86
2021/08/04 02:41:53;;;;;;;21.40;12.68;;;;;;;;;;5020958;28;20041;-86
2021/08/04 02:44:20;;;;;;;19.92;13.23;;;;;;;;;;5019129;28;20057;-86
2021/08/04 02:46:46;;;;;;;23.65;14.43;;;;;;;;;;5011655;28;20113;-86
2021/08/04 02:49:13;;;;;;;24.70;14.30;;;;;;;;;;5018998;28;20481;-86
2021/08/04 02:51:41;;;;;;;24.90;13.88;;;;;;;;;;5011749;28;20366;-86
2021/08/04 02:54:06;;;;;;;21.45;13.80;;;;;;;;;;5013291;28;20016;-86
2021/08/04 02:56:31;;;;;;;23.42;14.45;;;;;;;;;;5016167;28;20105;-86
2021/08/04 02:58:56;;;;;;;26.20;15.52;;;;;;;;;;5011420;28;20025;-87
2021/08/04 03:01:22;;;;;;;24.75;14.77;;;;;;;;;;5014467;28;20040;-86
2021/08/04 03:03:47;;;;;;;26.50;14.05;;;;;;;;;;5012914;28;20022;-86
2021/08/04 03:06:12;;;;;;;22.58;14.00;;;;;;;;;;5012793;28;20473;-86
2021/08/04 03:08:37;;;;;;;22.42;13.85;;;;;;;;;;5014416;28;20030;-86
2021/08/04 03:11:03;;;;;;;25.75;14.25;;;;;;;;;;5018853;28;20053;-86
2021/08/04 03:13:28;;;;;;;26.63;14.40;;;;;;;;;;5010961;28;20042;-86
2021/08/04 03:15:54;;;;;;;25.80;15.23;;;;;;;;;;5018318;28;20033;-86
2021/08/04 03:18:19;;;;;;;24.88;14.32;;;;;;;;;;5012162;28;20363;-86
2021/08/04 03:20:45;;;;;;;24.88;15.15;;;;;;;;;;5010830;28;20049;-86
2021/08/04 03:23:10;;;;;;;24.13;14.27;;;;;;;;;;5012927;28;20041;-86
2021/08/04 03:25:35;;;;;;;23.27;14.10;;;;;;;;;;5011390;28;20533;-86
2021/08/04 03:28:00;;;;;;;31.15;15.77;;;;;;;;;;5011110;28;20018;-86
2021/08/04 03:30:25;;;;;;;26.80;14.60;;;;;;;;;;5018599;28;20092;-86
2021/08/04 03:32:51;;;;;;;26.98;14.98;;;;;;;;;;5010896;28;20034;-86
2021/08/04 03:35:17;;;;;;;23.15;14.30;;;;;;;;;;5013316;28;20097;-86
2021/08/04 03:37:43;;;;;;;27.88;15.65;;;;;;;;;;5016016;28;20025;-86
2021/08/04 03:40:08;;;;;;;27.27;16.17;;;;;;;;;;5011224;28;20022;-86
2021/08/04 03:42:34;;;;;;;29.23;15.25;;;;;;;;;;5020424;28;20091;-86
2021/08/04 03:44:59;;;;;;;27.85;16.00;;;;;;;;;;5011965;28;20030;-86
2021/08/04 03:47:24;;;;;;;30.55;14.70;;;;;;;;;;5053971;28;20401;-86
2021/08/04 03:49:49;;;;;;;26.25;15.45;;;;;;;;;;5017227;28;20060;-86
2021/08/04 03:52:15;;;;;;;26.60;14.98;;;;;;;;;;5010719;28;20057;-86
2021/08/04 03:54:40;;;;;;;29.63;15.38;;;;;;;;;;5022488;28;20025;-85
2021/08/04 03:57:05;;;;;;;25.55;15.05;;;;;;;;;;5011420;28;20018;-86
2021/08/04 03:59:30;;;;;;;26.67;14.70;;;;;;;;;;5010698;28;20037;-86
2021/08/04 04:01:55;;;;;;;26.42;15.27;;;;;;;;;;5010675;28;20037;-86
2021/08/04 04:04:21;;;;;;;30.58;16.50;;;;;;;;;;5019876;28;20354;-86
2021/08/04 04:06:46;;;;;;;33.05;16.98;;;;;;;;;;5010890;28;20516;-85
2021/08/04 04:09:11;;;;;;;32.13;17.35;;;;;;;;;;5017986;28;20029;-86
2021/08/04 04:11:36;;;;;;;29.38;16.15;;;;;;;;;;5026513;28;20017;-86
2021/08/04 04:14:02;;;;;;;25.55;14.75;;;;;;;;;;5012211;28;20010;-86
2021/08/04 04:16:27;;;;;;;27.70;14.40;;;;;;;;;;5015819;28;20026;-86
2021/08/04 04:18:52;;;;;;;27.40;15.27;;;;;;;;;;5025532;28;20101;-86
2021/08/04 04:21:17;;;;;;;28.15;15.50;;;;;;;;;;5015716;28;20032;-86
2021/08/04 04:23:43;;;;;;;28.13;16.60;;;;;;;;;;5014184;28;20029;-86
2021/08/04 04:26:08;;;;;;;27.13;15.45;;;;;;;;;;5021822;28;20040;-86
2021/08/04 04:28:33;;;;;;;26.48;14.40;;;;;;;;;;5018005;28;20033;-86
2021/08/04 04:30:58;;;;;;;26.42;15.82;;;;;;;;;;5019165;28;20037;-86
2021/08/04 04:33:24;;;;;;;28.17;15.68;;;;;;;;;;5013875;28;20034;-86
2021/08/04 04:35:49;;;;;;;32.65;17.35;;;;;;;;;;5026998;28;20453;-86
2021/08/04 04:38:15;;;;;;;26.25;15.93;;;;;;;;;;5015203;28;20022;-86
2021/08/04 04:40:40;;;;;;;25.92;14.98;;;;;;;;;;5016945;28;20738;-86
2021/08/04 04:43:05;;;;;;;26.65;14.35;;;;;;;;;;5017022;28;20060;-86
2021/08/04 04:45:30;;;;;;;29.38;16.23;;;;;;;;;;5013732;28;20080;-86
2021/08/04 04:47:55;;;;;;;28.35;15.98;;;;;;;;;;5013934;28;20099;-85
2021/08/04 04:50:21;;;;;;;32.80;17.77;;;;;;;;;;5023423;28;20061;-85
2021/08/04 04:52:46;;;;;;;34.17;17.85;;;;;;;;;;5013818;28;20107;-86
2021/08/04 04:55:12;;;;;;;33.42;17.27;;;;;;;;;;5013807;28;20057;-86
2021/08/04 04:57:37;;;;;;;24.45;14.95;;;;;;;;;;5014749;28;20539;-86
2021/08/04 05:00:04;;;;;;;32.70;16.70;;;;;;;;;;5018358;28;20115;-86
2021/08/04 05:02:29;;;;;;;33.67;16.35;;;;;;;;;;5015250;28;20030;-86
2021/08/04 05:04:56;;;;;;;32.58;16.77;;;;;;;;;;5013710;28;20028;-86
2021/08/04 05:07:21;;;;;;;28.65;16.95;;;;;;;;;;5013742;28;20116;-86
2021/08/04 05:09:46;;;;;;;29.42;17.40;;;;;;;;;;5014877;28;20141;-86
2021/08/04 05:12:11;;;;;;;30.08;18.08;;;;;;;;;;5013705;28;20026;-86
2021/08/04 05:14:40;;;;;;;25.40;15.63;;;;;;;;;;5013471;28;20025;-86
2021/08/04 05:17:05;;;;;;;30.83;17.08;;;;;;;;;;5016392;28;20032;-86
2021/08/04 05:19:30;;;;;;;27.52;16.10;;;;;;;;;;5013366;28;20014;-86
2021/08/04 05:21:56;;;;;;;31.15;17.52;;;;;;;;;;5016224;28;20030;-86
2021/08/04 05:24:21;;;;;;;34.80;17.50;;;;;;;;;;5016616;28;20036;-86
2021/08/04 05:26:46;;;;;;;29.02;17.52;;;;;;;;;;5045502;28;20072;-86
2021/08/04 05:29:11;;;;;;;37.63;19.60;;;;;;;;;;5016876;28;20166;-86
2021/08/04 05:31:36;;;;;;;35.05;19.95;;;;;;;;;;5013034;28;20029;-86
2021/08/04 05:34:02;;;;;;;34.72;19.45;;;;;;;;;;5012968;28;20049;-86
2021/08/04 05:36:27;;;;;;;37.38;21.50;;;;;;;;;;5020925;28;20037;-86
2021/08/04 05:38:53;;;;;;;41.33;21.92;;;;;;;;;;5045848;28;20022;-86
2021/08/04 05:41:19;;;;;;;45.28;22.42;;;;;;;;;;5015280;28;20428;-87
2021/08/04 05:43:44;;;;;;;36.20;20.27;;;;;;;;;;5020327;28;20116;-87
2021/08/04 05:46:09;;;;;;;41.92;21.13;;;;;;;;;;5012668;28;20045;-85
2021/08/04 05:48:34;;;;;;;42.38;21.35;;;;;;;;;;5046192;28;20125;-86
2021/08/04 05:50:59;;;;;;;37.35;21.05;;;;;;;;;;5020507;28;20381;-86
2021/08/04 05:53:25;;;;;;;46.83;22.67;;;;;;;;;;5012563;28;20021;-87
2021/08/04 05:55:50;;;;;;;42.08;23.23;;;;;;;;;;5013027;28;20018;-87
2021/08/04 05:58:17;;;;;;;44.40;23.35;;;;;;;;;;5022165;28;20026;-87
2021/08/04 06:00:42;;;;;;;40.45;23.30;;;;;;;;;;5012646;28;20022;-87
2021/08/04 06:03:07;;;;;;;42.10;21.83;;;;;;;;;;5012420;28;20112;-87
2021/08/04 06:05:32;;;;;;;38.38;21.67;;;;;;;;;;5026995;28;20477;-87
2021/08/04 06:07:58;;;;;;;38.38;21.08;;;;;;;;;;5014738;28;20129;-87
2021/08/04 06:10:23;;;;;;;37.88;21.88;;;;;;;;;;5012526;28;20018;-88
2021/08/04 06:12:48;;;;;;;37.33;21.17;;;;;;;;;;5014374;28;20496;-87
2021/08/04 06:15:13;;;;;;;39.05;21.85;;;;;;;;;;5015799;28;20033;-88
2021/08/04 06:17:38;;;;;;;37.90;20.40;;;;;;;;;;5011555;28;20022;-88
2021/08/04 06:20:04;;;;;;;43.10;20.77;;;;;;;;;;5016114;28;20465;-89
2021/08/04 06:22:29;;;;;;;34.38;20.30;;;;;;;;;;5012206;28;20473;-89
2021/08/04 06:24:55;;;;;;;33.78;18.20;;;;;;;;;;5020211;28;20468;-87
2021/08/04 06:27:20;;;;;;;38.55;21.55;;;;;;;;;;5019840;28;20053;-88
2021/08/04 06:29:45;;;;;;;36.28;21.50;;;;;;;;;;5020284;28;20026;-86
2021/08/04 06:32:10;;;;;;;39.28;20.98;;;;;;;;;;5016872;28;20021;-86
2021/08/04 06:34:35;;;;;;;38.38;21.35;;;;;;;;;;5011762;28;20010;-86
2021/08/04 06:37:00;;;;;;;38.45;21.38;;;;;;;;;;5017424;28;20480;-86
2021/08/04 06:39:26;;;;;;;40.17;21.95;;;;;;;;;;5014585;28;20025;-87
2021/08/04 06:41:51;;;;;;;37.78;21.52;;;;;;;;;;5019059;28;20018;-87
2021/08/04 06:44:16;;;;;;;36.58;20.25;;;;;;;;;;5011973;28;20100;-86
2021/08/04 06:46:41;;;;;;;42.60;22.83;;;;;;;;;;5013058;28;20026;-86
2021/08/04 06:49:07;;;;;;;38.00;22.70;;;;;;;;;;5014072;28;20113;-87
2021/08/04 06:51:33;;;;;;;40.17;21.58;;;;;;;;;;5011314;28;20125;-86
2021/08/04 06:53:58;;;;;;;36.42;20.65;;;;;;;;;;5011053;28;20064;-86
2021/08/04 06:56:23;;;;;;;41.53;23.17;;;;;;;;;;5020835;28;20094;-86
2021/08/04 06:58:49;;;;;;;40.72;22.88;;;;;;;;;;5011912;28;20022;-87
2021/08/04 07:01:14;;;;;;;43.95;22.45;;;;;;;;;;5019136;28;20083;-86
2021/08/04 07:03:39;;;;;;;40.92;23.10;;;;;;;;;;5013166;28;20065;-86
2021/08/04 07:06:11;;;;;;;44.13;22.88;;;;;;;;;;5013912;28;20013;-86
2021/08/04 07:08:36;;;;;;;40.90;22.00;;;;;;;;;;5023015;28;20029;-86
2021/08/04 07:11:02;;;;;;;37.33;21.02;;;;;;;;;;5011213;28;20116;-87
2021/08/04 07:13:27;;;;;;;42.22;21.17;;;;;;;;;;5021140;28;20036;-86
2021/08/04 07:15:52;;;;;;;41.42;20.70;;;;;;;;;;5011354;28;20022;-86
2021/08/04 07:18:18;;;;;;;36.50;20.83;;;;;;;;;;5021684;28;20036;-87
2021/08/04 07:20:43;;;;;;;42.10;20.38;;;;;;;;;;5014823;28;20097;-86
2021/08/04 07:23:08;;;;;;;33.33;19.40;;;;;;;;;;5011265;28;20032;-86
2021/08/04 07:25:33;;;;;;;36.00;18.98;;;;;;;;;;5014296;28;20105;-87
2021/08/04 07:27:59;;;;;;;28.50;16.45;;;;;;;;;;5019871;28;20422;-87
2021/08/04 07:30:25;;;;;;;27.63;16.40;;;;;;;;;;5010728;28;20045;-87
2021/08/04 07:32:50;;;;;;;24.88;14.18;;;;;;;;;;5010830;28;20029;-87
2021/08/04 07:35:16;;;;;;;29.63;15.57;;;;;;;;;;5010182;28;20033;-86
2021/08/04 07:37:41;;;;;;;21.83;13.20;;;;;;;;;;5013993;28;20010;-86
2021/08/04 07:40:07;;;;;;;24.95;14.95;;;;;;;;;;5010123;28;20411;-87
2021/08/04 07:42:33;;;;;;;30.77;17.58;;;;;;;;;;5010299;28;20026;-87
2021/08/04 07:44:58;;;;;;;27.20;14.60;;;;;;;;;;5018045;28;20469;-87
2021/08/04 07:47:23;;;;;;;27.50;15.27;;;;;;;;;;5011298;28;20034;-87
2021/08/04 07:49:48;;;;;;;27.58;15.27;;;;;;;;;;5018224;28;20032;-87
2021/08/04 07:52:14;;;;;;;23.95;15.43;;;;;;;;;;5016062;28;20034;-86
2021/08/04 07:54:39;;;;;;;29.48;16.02;;;;;;;;;;5010549;28;20021;-87
2021/08/04 07:57:04;;;;;;;27.20;15.70;;;;;;;;;;5011282;28;20148;-87
2021/08/04 07:59:30;;;;;;;20.00;11.30;;;;;;;;;;5014650;28;20041;-87
2021/08/04 08:01:55;;;;;;;24.63;13.30;;;;;;;;;;5011166;28;20038;-87
2021/08/04 08:04:20;;;;;;;24.60;12.70;;;;;;;;;;5014923;28;20121;-87
2021/08/04 08:06:45;;;;;;;25.20;14.02;;;;;;;;;;5012188;28;20029;-87
2021/08/04 08:09:11;;;;;;;26.23;14.25;;;;;;;;;;5010668;28;20025;-87
2021/08/04 08:11:37;;;;;;;24.02;13.93;;;;;;;;;;5012090;28;20033;-87
2021/08/04 08:14:02;;;;;;;24.38;14.65;;;;;;;;;;5013253;28;20510;-87
2021/08/04 08:16:27;;;;;;;29.27;16.65;;;;;;;;;;5011582;28;20030;-87
2021/08/04 08:18:53;;;;;;;25.70;15.02;;;;;;;;;;5011672;28;20442;-87
2021/08/04 08:21:22;;;;;;;21.77;12.52;;;;;;;;;;5014868;28;20522;-87
2021/08/04 08:23:48;;;;;;;23.23;14.38;;;;;;;;;;5014056;28;20033;-86
2021/08/04 08:26:13;;;;;;;24.80;15.57;;;;;;;;;;5014160;28;20029;-87
2021/08/04 08:28:38;;;;;;;24.67;15.57;;;;;;;;;;5026904;28;20478;-87
2021/08/04 08:31:03;;;;;;;23.55;13.93;;;;;;;;;;5014225;28;20113;-87
2021/08/04 08:33:28;;;;;;;23.98;15.00;;;;;;;;;;5010459;28;20030;-87
2021/08/04 08:35:54;;;;;;;24.00;12.80;;;;;;;;;;5018171;28;20036;-86
2021/08/04 08:38:19;;;;;;;28.10;14.70;;;;;;;;;;5013566;28;20022;-87
2021/08/04 08:40:45;;;;;;;23.40;13.15;;;;;;;;;;5014440;28;20018;-87
2021/08/04 08:43:10;;;;;;;19.58;12.02;;;;;;;;;;5016856;28;20057;-87
2021/08/04 08:45:35;;;;;;;23.63;13.55;;;;;;;;;;5010526;28;20068;-87
2021/08/04 08:48:01;;;;;;;23.63;14.35;;;;;;;;;;5010014;28;20040;-86
2021/08/04 08:50:28;;;;;;;24.00;14.50;;;;;;;;;;5015111;28;20033;-87
2021/08/04 08:52:54;;;;;;;21.77;13.70;;;;;;;;;;5010081;28;20699;-87
2021/08/04 08:55:19;;;;;;;28.35;16.92;;;;;;;;;;5009944;28;20018;-87
2021/08/04 08:57:45;;;;;;;26.50;15.82;;;;;;;;;;5012873;28;20026;-87
2021/08/04 09:00:10;;;;;;;24.65;14.30;;;;;;;;;;5010042;28;20026;-87
2021/08/04 09:02:36;;;;;;;21.20;13.15;;;;;;;;;;5014155;28;20026;-87
2021/08/04 09:05:03;;;;;;;26.25;14.68;;;;;;;;;;5014731;28;20105;-87
2021/08/04 09:07:29;;;;;;;24.98;14.15;;;;;;;;;;5038627;28;20022;-87
2021/08/04 09:09:54;;;;;;;23.75;13.20;;;;;;;;;;5015172;28;20028;-87
2021/08/04 09:12:19;;;;;;;26.52;15.90;;;;;;;;;;5021027;28;20026;-87
2021/08/04 09:14:44;;;;;;;29.55;17.45;;;;;;;;;;5019142;28;20021;-87
2021/08/04 09:17:12;;;;;;;30.75;16.95;;;;;;;;;;5015897;28;20020;-87
2021/08/04 09:19:38;;;;;;;23.48;13.73;;;;;;;;;;5028894;28;20163;-87
2021/08/04 09:22:03;;;;;;;25.67;15.45;;;;;;;;;;5021982;28;20100;-87
2021/08/04 09:24:28;;;;;;;27.55;15.95;;;;;;;;;;5013254;28;20122;-87
2021/08/04 09:26:54;;;;;;;25.90;16.13;;;;;;;;;;5014831;28;20022;-87
2021/08/04 09:29:19;;;;;;;23.70;14.85;;;;;;;;;;5020427;28;20481;-87
2021/08/04 09:31:49;;;;;;;31.27;16.55;;;;;;;;;;5013304;28;20033;-87
2021/08/04 09:34:35;;;;;;;29.45;16.70;;;;;;;;;;5013472;28;20638;-88
2021/08/04 09:37:04;;;;;;;23.02;13.00;;;;;;;;;;5014713;28;20796;-87
2021/08/04 09:39:29;;;;;;;22.60;12.98;;;;;;;;;;5015981;28;20428;-87
2021/08/04 09:41:54;;;;;;;20.75;12.43;;;;;;;;;;5013315;28;20106;-87
2021/08/04 09:44:20;;;;;;;20.98;13.18;;;;;;;;;;5016413;28;20462;-88
2021/08/04 09:46:45;;;;;;;25.42;14.52;;;;;;;;;;5014133;28;20026;-87
2021/08/04 09:49:17;;;;;;;22.95;13.40;;;;;;;;;;5012256;28;20026;-87
2021/08/04 09:51:42;;;;;;;;;;;;;;;;;;5046351;28;20026;-87
2021/08/04 09:54:09;;;;;;;33.28;16.48;;;;;;;;;;5015827;28;19932;-87
2021/08/04 09:56:46;;;;;;;25.08;15.43;;;;;;;;;;5012735;28;20271;-87
2021/08/04 09:59:11;;;;;;;28.58;16.92;;;;;;;;;;5006240;28;20798;-86
2021/08/04 10:01:37;;;;;;;35.20;19.48;;;;;;;;;;5012930;28;20030;-86
2021/08/04 10:04:04;;;;;;;29.42;16.58;;;;;;;;;;5013904;28;20611;-87
2021/08/04 10:06:30;;;;;;;28.83;16.35;;;;;;;;;;5012471;28;20048;-87
2021/08/04 10:08:57;;;;;;;27.92;15.82;;;;;;;;;;5022831;28;20018;-87
2021/08/04 10:11:23;;;;;;;35.70;17.40;;;;;;;;;;5012640;28;20409;-87
2021/08/04 10:13:48;;;;;;;28.52;17.35;;;;;;;;;;5013054;28;20014;-87
2021/08/04 10:16:13;;;;;;;21.25;13.23;;;;;;;;;;5045319;28;20706;-87
2021/08/04 10:18:40;;;;;;;18.58;11.95;;;;;;;;;;5013420;28;20462;-87
2021/08/04 10:21:08;;;;;;;24.30;14.38;;;;;;;;;;5012206;28;20060;-87
2021/08/04 10:23:34;;;;;;;21.90;13.80;;;;;;;;;;5011919;28;20017;-87
2021/08/04 10:25:59;;;;;;;22.88;14.65;;;;;;;;;;5019609;28;20018;-87
2021/08/04 10:28:25;;;;;;;28.05;15.63;;;;;;;;;;5012438;28;20046;-87
2021/08/04 10:30:50;;;;;;;23.58;15.07;;;;;;;;;;5012379;28;20169;-87
2021/08/04 10:33:17;;;;;;;27.35;15.77;;;;;;;;;;5015912;28;20026;-88
2021/08/04 10:35:50;;;;;;;31.10;16.42;;;;;;;;;;5012554;28;20022;-86
2021/08/04 10:38:19;;;;;;;31.45;16.90;;;;;;;;;;5013164;28;20480;-87
2021/08/04 10:40:44;;;;;;;30.67;18.58;;;;;;;;;;5014158;28;20029;-87
2021/08/04 10:43:10;;;;;;;30.88;17.05;;;;;;;;;;5016945;28;20762;-86
2021/08/04 10:45:35;;;;;;;27.92;17.15;;;;;;;;;;5011959;28;20114;-87
2021/08/04 10:48:18;;;;;;;28.45;17.40;;;;;;;;;;5011542;28;20408;-87
2021/08/04 10:51:02;;;;;;;32.15;16.42;;;;;;;;;;5006542;28;20068;-86
2021/08/04 10:53:27;;;;;;;24.80;15.93;;;;;;;;;;5045136;28;20037;-86
2021/08/04 10:55:53;;;;;;;26.88;17.00;;;;;;;;;;5012088;28;20469;-87
2021/08/04 10:58:19;;;;;;;27.52;16.30;;;;;;;;;;5010924;28;20028;-86
2021/08/04 11:00:44;;;;;;;31.13;17.98;;;;;;;;;;5017030;28;20047;-87
2021/08/04 11:03:28;;;;;;;28.10;15.23;;;;;;;;;;5016395;28;20030;-86
2021/08/04 11:06:12;;;;;;;35.03;21.10;;;;;;;;;;5011539;28;20017;-87
2021/08/04 11:08:39;;;;;;;26.60;16.27;;;;;;;;;;5014073;28;20390;-87
2021/08/04 11:11:04;;;;;;;30.60;17.63;;;;;;;;;;5011396;28;20116;-87
2021/08/04 11:13:41;;;;;;;29.73;18.08;;;;;;;;;;5013723;28;20113;-86
2021/08/04 11:16:36;;;;;;;30.40;17.95;;;;;;;;;;5015524;28;20041;-87
2021/08/04 11:19:06;;;;;;;29.55;17.88;;;;;;;;;;5034072;28;20033;-87
2021/08/04 11:21:32;;;;;;;24.88;15.27;;;;;;;;;;5044465;28;20493;-87
2021/08/04 11:23:59;;;;;;;33.17;18.77;;;;;;;;;;5012069;28;20048;-86
2021/08/04 11:26:26;;;;;;;24.27;15.77;;;;;;;;;;5012573;28;20022;-87
2021/08/04 11:28:52;;;;;;;27.48;16.83;;;;;;;;;;5011159;28;20029;-87
2021/08/04 11:31:19;;;;;;;27.05;14.30;;;;;;;;;;5014528;28;20026;-86
2021/08/04 11:33:44;;;;;;;20.85;14.32;;;;;;;;;;5011842;28;20022;-87
2021/08/04 11:36:15;;;;;;;27.23;15.55;;;;;;;;;;5011175;28;20133;-87
2021/08/04 11:38:47;;;;;;;24.33;15.57;;;;;;;;;;5051855;28;20429;-87
2021/08/04 11:41:15;;;;;;;24.15;15.63;;;;;;;;;;5015163;28;20030;-86
2021/08/04 11:43:40;;;;;;;25.60;16.25;;;;;;;;;;5042443;28;20014;-87
2021/08/04 11:46:05;;;;;;;22.60;14.98;;;;;;;;;;5017418;28;20389;-86
2021/08/04 11:48:49;;;;;;;24.35;15.30;;;;;;;;;;5010846;28;20037;-86
2021/08/04 11:51:15;;;;;;;19.95;12.90;;;;;;;;;;5015233;28;20040;-87
2021/08/04 11:53:43;;;;;;;22.35;13.98;;;;;;;;;;5010519;28;20021;-86
2021/08/04 11:56:09;;;;;;;30.35;17.27;;;;;;;;;;5004274;28;20441;-86
2021/08/04 11:58:34;;;;;;;30.33;15.88;;;;;;;;;;5012074;28;20030;-87
2021/08/04 12:01:15;;;;;;;21.27;13.93;;;;;;;;;;5010789;28;20034;-87
2021/08/04 12:03:40;;;;;;;28.03;16.07;;;;;;;;;;5010693;28;20069;-87
2021/08/04 12:06:27;;;;;;;25.60;14.80;;;;;;;;;;5020363;28;20072;-87
2021/08/04 12:08:52;;;;;;;23.30;14.23;;;;;;;;;;5010463;28;20433;-87
2021/08/04 12:11:17;;;;;;;30.60;18.77;;;;;;;;;;5013961;28;20030;-87
2021/08/04 12:14:02;;;;;;;26.38;15.40;;;;;;;;;;5013466;28;20473;-87
2021/08/04 12:16:27;;;;;;;26.17;15.93;;;;;;;;;;5011007;28;20091;-87
2021/08/04 12:18:52;;;;;;;25.52;16.52;;;;;;;;;;5014413;28;20026;-87
2021/08/04 12:21:17;;;;;;;22.58;14.32;;;;;;;;;;5043523;28;20358;-87
2021/08/04 12:23:43;;;;;;;23.33;15.05;;;;;;;;;;5011758;28;20080;-87
2021/08/04 12:26:08;;;;;;;24.42;14.00;;;;;;;;;;5016053;28;20033;-87
2021/08/04 12:28:33;;;;;;;23.83;15.68;;;;;;;;;;5010664;28;20140;-87
2021/08/04 12:30:58;;;;;;;23.98;14.80;;;;;;;;;;5010630;28;20049;-87
2021/08/04 12:33:26;;;;;;;24.65;15.70;;;;;;;;;;5015834;28;20385;-87
2021/08/04 12:38:38;;;;;;;24.90;15.30;;;;;;;;;;5013218;28;20024;-87
2021/08/04 12:41:04;;;;;;;24.55;14.95;;;;;;;;;;5018097;28;20045;-86
2021/08/04 12:43:30;;;;;;;29.42;14.95;;;;;;;;;;5019138;28;20045;-87
2021/08/04 12:45:56;;;;;;;26.50;16.90;;;;;;;;;;5014127;28;20061;-87
2021/08/04 12:48:33;;;;;;;21.95;14.35;;;;;;;;;;5015360;28;20104;-86
2021/08/04 12:50:58;;;;;;;27.92;15.52;;;;;;;;;;5018386;28;20104;-87
2021/08/04 12:53:26;;;;;;;22.88;13.65;;;;;;;;;;5014909;28;20108;-87
2021/08/04 12:55:58;;;;;;;19.17;11.98;;;;;;;;;;5013988;28;20021;-87
2021/08/04 12:58:23;;;;;;;18.77;11.65;;;;;;;;;;5014655;28;20384;-87
2021/08/04 13:00:48;;;;;;;18.15;11.07;;;;;;;;;;5014200;28;20113;-87
2021/08/04 13:03:27;;;;;;;19.98;11.23;;;;;;;;;;5013860;28;20034;-86
2021/08/04 13:05:53;;;;;;;17.63;10.73;;;;;;;;;;5014179;28;20032;-87
2021/08/04 13:08:31;;;;;;;16.60;10.40;;;;;;;;;;5013551;28;20116;-87
2021/08/04 13:10:57;;;;;;;17.50;11.20;;;;;;;;;;5023322;28;20022;-87
2021/08/04 13:13:22;;;;;;;17.48;10.65;;;;;;;;;;5026513;28;20029;-87
2021/08/04 13:15:52;;;;;;;23.15;11.55;;;;;;;;;;5013767;28;20026;-87
2021/08/04 13:18:17;;;;;;;17.27;10.50;;;;;;;;;;5020545;28;20103;-87
2021/08/04 13:20:43;;;;;;;17.17;11.10;;;;;;;;;;5015546;28;20454;-86
2021/08/04 13:23:09;;;;;;;17.95;10.10;;;;;;;;;;5014149;28;20022;-86
2021/08/04 13:25:40;;;;;;;15.88;10.60;;;;;;;;;;5021878;28;20037;-87
2021/08/04 13:28:09;;;;;;;14.45;10.20;;;;;;;;;;5013862;28;20045;-86
2021/08/04 13:30:35;;;;;;;17.15;11.07;;;;;;;;;;5013454;28;20107;-87
2021/08/04 13:33:05;;;;;;;18.02;11.60;;;;;;;;;;5020518;28;20105;-86
2021/08/04 13:35:32;;;;;;;20.45;13.73;;;;;;;;;;5013961;28;20030;-86
2021/08/04 13:37:57;;;;;;;24.42;13.77;;;;;;;;;;5018393;28;20461;-86
2021/08/04 13:40:22;;;;;;;22.58;14.35;;;;;;;;;;5020586;28;20055;-86
2021/08/04 13:42:47;;;;;;;25.33;16.67;;;;;;;;;;5013151;28;20053;-86
2021/08/04 13:45:14;;;;;;;24.55;14.88;;;;;;;;;;5018697;28;20052;-87
2021/08/04 13:47:40;;;;;;;19.63;13.75;;;;;;;;;;5027601;28;20037;-87
2021/08/04 13:50:06;;;;;;;21.60;14.40;;;;;;;;;;5015698;28;20480;-86
2021/08/04 13:52:32;;;;;;;21.90;14.93;;;;;;;;;;5012231;28;20118;-86
2021/08/04 13:54:58;;;;;;;23.33;14.55;;;;;;;;;;5015233;28;20556;-87
2021/08/04 13:57:23;;;;;;;27.75;16.20;;;;;;;;;;5012648;28;20109;-87
2021/08/04 13:59:48;;;;;;;28.25;17.13;;;;;;;;;;5012763;28;20480;-87
2021/08/04 14:02:14;;;;;;;31.10;18.00;;;;;;;;;;5012639;28;20500;-87
2021/08/04 14:04:41;;;;;;;28.17;19.02;;;;;;;;;;5014926;28;20720;-88
2021/08/04 14:07:06;;;;;;;28.98;19.55;;;;;;;;;;5021782;28;20040;-88
2021/08/04 14:09:31;;;;;;;30.40;19.92;;;;;;;;;;5018932;28;20105;-87
2021/08/04 14:11:56;;;;;;;39.92;21.10;;;;;;;;;;5013477;28;20038;-87
2021/08/04 14:14:21;;;;;;;38.80;20.85;;;;;;;;;;5019377;28;20033;-88
2021/08/04 14:16:49;;;;;;;38.28;22.30;;;;;;;;;;5018349;28;20094;-87
2021/08/04 14:19:14;;;;;;;33.95;22.63;;;;;;;;;;5015825;28;20489;-88